SBI5311 UNNT-UNKL
Flight info
| Callsign | SBI5311 |
|---|---|
| Flight time | N/A |
| Altitude | 35000 |
| Route | OGATI1J OGATI A308 RISPA A366 KESED A309 ROTLI/K0787F270 A300 RANET RANET2S |
| Aircraft | A319/M-SDE3FGHIRWY/LB1 |
Departure
| Time | 2026-05-01 15:10 |
|---|---|
| Airport | Novosibirsk Tolmachevo Airport (UNNT) |
Arrival
| Time | N/A |
|---|---|
| Airport | Krasnoyarsk International Airport (UNKL) |
| Time | Latitude | Longitude | Altitude | Speed | Heading |
|---|---|---|---|---|---|
| 2026-05-01 14:20 | 55.00982 | 82.65851 | 373 ft | 0 kts | 171° |
| 2026-05-01 15:04 | 55.00953 | 82.65853 | 373 ft | 8 kts | 188° |
| 2026-05-01 15:05 | 55.00926 | 82.65765 | 373 ft | 11 kts | 257° |
| 2026-05-01 15:05 | 55.00915 | 82.65631 | 373 ft | 15 kts | 263° |
| 2026-05-01 15:05 | 55.00899 | 82.65440 | 373 ft | 19 kts | 258° |
| 2026-05-01 15:05 | 55.00882 | 82.65194 | 373 ft | 23 kts | 266° |
| 2026-05-01 15:06 | 55.00877 | 82.64949 | 373 ft | 20 kts | 282° |
| 2026-05-01 15:06 | 55.00909 | 82.64719 | 373 ft | 20 kts | 283° |
| 2026-05-01 15:06 | 55.00938 | 82.64486 | 373 ft | 20 kts | 284° |
| 2026-05-01 15:06 | 55.00968 | 82.64256 | 373 ft | 20 kts | 282° |
| 2026-05-01 15:07 | 55.01002 | 82.64033 | 374 ft | 10 kts | 308° |
| 2026-05-01 15:07 | 55.01026 | 82.64010 | 374 ft | 0 kts | 345° |
| 2026-05-01 15:08 | 55.01028 | 82.64009 | 374 ft | 2 kts | 346° |
| 2026-05-01 15:08 | 55.01088 | 82.63990 | 375 ft | 15 kts | 351° |
| 2026-05-01 15:09 | 55.01158 | 82.64112 | 375 ft | 19 kts | 83° |
| 2026-05-01 15:09 | 55.01194 | 82.64494 | 372 ft | 64 kts | 81° |
| 2026-05-01 15:09 | 55.01295 | 82.65621 | 373 ft | 128 kts | 81° |
| 2026-05-01 15:09 | 55.01446 | 82.67342 | 600 ft | 155 kts | 82° |
| 2026-05-01 15:10 | 55.01596 | 82.69112 | 1164 ft | 154 kts | 84° |
| 2026-05-01 15:10 | 55.01941 | 82.72973 | 1879 ft | 180 kts | 88° |
| 2026-05-01 15:10 | 55.02135 | 82.75200 | 2034 ft | 204 kts | 87° |
| 2026-05-01 15:11 | 55.02366 | 82.77797 | 2449 ft | 229 kts | 86° |
| 2026-05-01 15:11 | 55.02723 | 82.81728 | 3512 ft | 241 kts | 86° |
| 2026-05-01 15:11 | 55.02940 | 82.84646 | 4357 ft | 244 kts | 94° |
| 2026-05-01 15:12 | 55.02550 | 82.87482 | 5157 ft | 246 kts | 120° |
| 2026-05-01 15:12 | 55.00096 | 82.92085 | 5953 ft | 272 kts | 138° |
| 2026-05-01 15:12 | 54.98766 | 82.94337 | 6002 ft | 264 kts | 138° |
| 2026-05-01 15:13 | 54.97228 | 83.03334 | 6006 ft | 273 kts | 96° |
| 2026-05-01 15:14 | 54.95690 | 83.08692 | 6008 ft | 263 kts | 136° |
| 2026-05-01 15:14 | 54.94400 | 83.10927 | 6005 ft | 263 kts | 138° |
| 2026-05-01 15:14 | 54.91770 | 83.15310 | 6013 ft | 263 kts | 140° |
| 2026-05-01 15:15 | 54.89141 | 83.19426 | 6009 ft | 263 kts | 140° |
| 2026-05-01 15:15 | 54.86433 | 83.23653 | 6253 ft | 266 kts | 140° |
| 2026-05-01 15:16 | 54.83654 | 83.27990 | 8044 ft | 274 kts | 141° |
| 2026-05-01 15:16 | 54.81094 | 83.32872 | 9667 ft | 292 kts | 118° |
| 2026-05-01 15:17 | 54.80704 | 83.39879 | 10571 ft | 333 kts | 88° |
| 2026-05-01 15:18 | 54.81330 | 83.52603 | 12328 ft | 364 kts | 86° |
| 2026-05-01 15:18 | 54.81550 | 83.56978 | 13054 ft | 369 kts | 86° |
| 2026-05-01 15:19 | 54.82143 | 83.70535 | 15060 ft | 383 kts | 87° |
| 2026-05-01 15:19 | 54.82519 | 83.79815 | 16345 ft | 391 kts | 87° |
| 2026-05-01 15:19 | 54.82707 | 83.84541 | 16986 ft | 395 kts | 87° |
| 2026-05-01 15:20 | 54.83088 | 83.94139 | 18252 ft | 403 kts | 87° |
| 2026-05-01 15:20 | 54.83279 | 83.99028 | 18802 ft | 407 kts | 87° |
| 2026-05-01 15:20 | 54.83470 | 84.03921 | 19395 ft | 410 kts | 87° |
| 2026-05-01 15:21 | 54.83661 | 84.08861 | 19990 ft | 412 kts | 87° |
| 2026-05-01 15:21 | 54.83848 | 84.13691 | 20557 ft | 415 kts | 87° |
| 2026-05-01 15:21 | 54.84039 | 84.18698 | 21143 ft | 417 kts | 87° |
| 2026-05-01 15:21 | 54.84227 | 84.23740 | 21732 ft | 420 kts | 88° |
| 2026-05-01 15:22 | 54.84598 | 84.33924 | 22847 ft | 425 kts | 88° |
| 2026-05-01 15:22 | 54.84786 | 84.39059 | 23383 ft | 428 kts | 88° |
| 2026-05-01 15:22 | 54.84972 | 84.44226 | 23845 ft | 431 kts | 88° |
| 2026-05-01 15:23 | 54.85155 | 84.49434 | 24266 ft | 434 kts | 88° |
| 2026-05-01 15:23 | 54.85336 | 84.54671 | 24674 ft | 437 kts | 88° |
| 2026-05-01 15:23 | 54.85515 | 84.59939 | 25072 ft | 440 kts | 88° |
| 2026-05-01 15:23 | 54.85689 | 84.65268 | 25472 ft | 443 kts | 89° |
| 2026-05-01 15:24 | 54.85567 | 84.70610 | 25852 ft | 444 kts | 96° |
| 2026-05-01 15:24 | 54.85282 | 84.75959 | 26239 ft | 447 kts | 96° |
| 2026-05-01 15:24 | 54.84996 | 84.81353 | 26632 ft | 450 kts | 96° |
| 2026-05-01 15:24 | 54.84712 | 84.86778 | 27026 ft | 453 kts | 96° |
| 2026-05-01 15:25 | 54.84425 | 84.92237 | 27398 ft | 456 kts | 96° |
| 2026-05-01 15:25 | 54.84135 | 84.97731 | 27776 ft | 458 kts | 96° |
| 2026-05-01 15:25 | 54.83859 | 85.03250 | 28147 ft | 461 kts | 95° |
| 2026-05-01 15:25 | 54.83585 | 85.08814 | 28517 ft | 464 kts | 95° |
| 2026-05-01 15:26 | 54.83312 | 85.14403 | 28869 ft | 467 kts | 95° |
| 2026-05-01 15:26 | 54.83038 | 85.20035 | 29215 ft | 470 kts | 95° |
| 2026-05-01 15:26 | 54.82764 | 85.25695 | 29561 ft | 472 kts | 95° |
| 2026-05-01 15:26 | 54.82491 | 85.31376 | 29901 ft | 475 kts | 95° |
| 2026-05-01 15:27 | 54.82310 | 85.35162 | 30108 ft | 476 kts | 95° |
| 2026-05-01 15:27 | 54.82037 | 85.40898 | 30402 ft | 479 kts | 95° |
| 2026-05-01 15:27 | 54.81765 | 85.46661 | 30691 ft | 480 kts | 95° |
| 2026-05-01 15:28 | 54.81223 | 85.58241 | 31296 ft | 483 kts | 95° |
| 2026-05-01 15:28 | 54.80955 | 85.64004 | 31722 ft | 481 kts | 94° |
| 2026-05-01 15:28 | 54.80690 | 85.69753 | 32150 ft | 479 kts | 94° |
| 2026-05-01 15:29 | 54.80167 | 85.81202 | 32990 ft | 476 kts | 94° |
| 2026-05-01 15:29 | 54.79909 | 85.86909 | 33419 ft | 475 kts | 94° |
| 2026-05-01 15:29 | 54.79400 | 85.98271 | 34240 ft | 472 kts | 94° |
| 2026-05-01 15:30 | 54.78901 | 86.09579 | 34949 ft | 470 kts | 93° |
| 2026-05-01 15:31 | 54.77457 | 86.43203 | 35046 ft | 467 kts | 93° |
| 2026-05-01 15:32 | 54.76528 | 86.65635 | 35045 ft | 467 kts | 92° |
| 2026-05-01 15:34 | 54.76672 | 86.98926 | 35047 ft | 456 kts | 62° |